Time;durP1;ratioP1;P1;durP2;ratioP2;P2;SDS_P1;SDS_P2;PMS_P1;PMS_P2;Temp;Humidity;BMP_temperature;BMP_pressure;BME280_temperature;BME280_humidity;BME280_pressure;Samples;Min_cycle;Max_cycle;Signal;HPM_P1;HPM_P2
2022/11/17 00:02:06;;;;;;;48.35;45.92;;;7.30;99.90;;;;;;5068695;28;20384;-59
2022/11/17 00:04:32;;;;;;;46.55;44.00;;;7.30;99.90;;;;;;5084058;28;20494;-57
2022/11/17 00:06:58;;;;;;;47.07;44.67;;;7.20;99.90;;;;;;5068937;28;20478;-59
2022/11/17 00:09:24;;;;;;;44.08;41.67;;;7.10;99.90;;;;;;5084674;28;20427;-60
2022/11/17 00:14:36;;;;;;;45.93;43.63;;;7.20;99.90;;;;;;5070981;28;20398;-61
2022/11/17 00:17:04;;;;;;;46.83;44.42;;;7.20;99.90;;;;;;5085538;28;20395;-59
2022/11/17 00:22:22;;;;;;;47.15;44.65;;;7.20;99.90;;;;;;5065203;28;20954;-58
2022/11/17 00:24:48;;;;;;;45.03;42.72;;;7.20;99.90;;;;;;5083691;28;20494;-59
2022/11/17 00:27:15;;;;;;;42.17;39.58;;;7.10;99.90;;;;;;5083861;28;20460;-58
2022/11/17 00:29:40;;;;;;;45.97;43.38;;;7.20;99.90;;;;;;5079400;28;20388;-58
2022/11/17 00:34:56;;;;;;;50.63;48.05;;;7.20;99.90;;;;;;5066101;28;20379;-59
2022/11/17 00:37:21;;;;;;;43.97;41.67;;;7.20;99.90;;;;;;5064698;28;20412;-57
2022/11/17 00:39:47;;;;;;;38.80;36.67;;;7.10;99.90;;;;;;5066690;28;20438;-58
2022/11/17 00:42:12;;;;;;;43.17;40.97;;;7.10;99.90;;;;;;5080546;28;20411;-57
2022/11/17 00:44:38;;;;;;;39.45;37.35;;;7.10;99.90;;;;;;5066374;28;20418;-58
2022/11/17 00:47:04;;;;;;;42.85;40.65;;;7.10;99.90;;;;;;5068469;28;20685;-58
2022/11/17 00:49:30;;;;;;;40.63;38.53;;;7.00;99.90;;;;;;5069646;28;20371;-58
2022/11/17 00:51:56;;;;;;;38.53;36.47;;;7.00;99.90;;;;;;5086322;28;20380;-58
2022/11/17 00:54:23;;;;;;;41.55;39.35;;;7.00;99.90;;;;;;5069509;28;20479;-58
2022/11/17 00:56:49;;;;;;;41.80;39.70;;;7.00;99.90;;;;;;5069984;28;20383;-58
2022/11/17 00:59:15;;;;;;;42.27;40.00;;;7.10;99.90;;;;;;5087113;28;20459;-58
2022/11/17 01:01:42;;;;;;;35.90;34.00;;;7.00;99.90;;;;;;5086726;28;20435;-57
2022/11/17 01:04:09;;;;;;;36.58;34.58;;;7.00;99.90;;;;;;5085543;28;20404;-58
2022/11/17 01:06:43;;;;;;;40.03;37.93;;;7.00;99.90;;;;;;5084224;28;20628;-58
2022/11/17 01:09:18;;;;;;;38.60;36.60;;;7.00;99.90;;;;;;5082157;28;20457;-54
2022/11/17 01:11:45;;;;;;;38.67;36.65;;;7.00;99.90;;;;;;5081938;28;20386;-57
2022/11/17 01:14:14;;;;;;;37.97;35.90;;;7.00;99.90;;;;;;5066147;28;20689;-55
2022/11/17 01:16:40;;;;;;;37.22;35.15;;;6.90;99.90;;;;;;5083439;28;20539;-58
2022/11/17 01:19:06;;;;;;;35.15;33.25;;;7.00;99.90;;;;;;5085139;28;20461;-57
2022/11/17 01:21:33;;;;;;;40.28;38.08;;;6.90;99.90;;;;;;5085803;28;20418;-56
2022/11/17 01:24:00;;;;;;;36.05;34.05;;;6.80;99.90;;;;;;5069687;28;20695;-58
2022/11/17 01:26:33;;;;;;;37.25;35.25;;;6.90;99.90;;;;;;5070764;28;20851;-58
2022/11/17 01:29:01;;;;;;;37.00;34.95;;;6.90;99.90;;;;;;5068887;28;20604;-52
2022/11/17 01:31:30;;;;;;;34.15;32.25;;;6.90;99.90;;;;;;5068028;28;20426;-57
2022/11/17 01:33:56;;;;;;;33.70;31.90;;;6.90;99.90;;;;;;5082436;28;20391;-55
2022/11/17 01:37:17;;;;;;;32.43;30.67;;;6.90;99.90;;;;;;5066524;28;20387;-58
2022/11/17 01:39:19;;;;;;;36.55;34.60;;;6.90;99.90;;;;;;5067689;28;20794;-57
2022/11/17 01:41:45;;;;;;;36.47;34.30;;;6.90;99.90;;;;;;5083393;28;20526;-58
2022/11/17 01:44:48;;;;;;;34.10;32.27;;;6.90;99.90;;;;;;5083386;28;20400;-55
2022/11/17 01:47:35;;;;;;;35.65;33.75;;;6.80;99.90;;;;;;5071832;28;20384;-56
2022/11/17 01:50:03;;;;;;;35.35;33.55;;;6.90;99.90;;;;;;5076606;28;20380;-55
2022/11/17 01:52:30;;;;;;;33.42;31.60;;;6.80;99.90;;;;;;5090166;28;20774;-57
2022/11/17 01:54:59;;;;;;;36.22;34.20;;;6.80;99.90;;;;;;5088486;28;20391;-57
2022/11/17 01:57:31;;;;;;;36.85;34.90;;;6.70;99.90;;;;;;5089245;28;20395;-57
2022/11/17 02:00:04;;;;;;;35.92;34.00;;;6.80;99.90;;;;;;5089759;28;20407;-57
2022/11/17 02:02:31;;;;;;;38.17;36.17;;;6.80;99.90;;;;;;5091115;28;20403;-58
2022/11/17 02:05:15;;;;;;;38.70;36.70;;;6.80;99.90;;;;;;5090019;28;20399;-58
2022/11/17 02:07:43;;;;;;;40.33;38.22;;;6.80;99.90;;;;;;5073510;28;20383;-59
2022/11/17 02:10:09;;;;;;;39.22;37.20;;;6.80;99.90;;;;;;5090685;28;20383;-56
2022/11/17 02:12:35;;;;;;;35.70;33.72;;;6.80;99.90;;;;;;5090281;28;20388;-57
2022/11/17 02:15:05;;;;;;;37.90;35.90;;;6.80;99.90;;;;;;5088373;28;20784;-57
2022/11/17 02:17:38;;;;;;;34.25;32.45;;;6.70;99.90;;;;;;5087086;28;20419;-57
2022/11/17 02:20:03;;;;;;;37.45;35.30;;;6.80;99.90;;;;;;5086676;28;20603;-57
2022/11/17 02:22:41;;;;;;;42.40;40.17;;;6.70;99.90;;;;;;5071500;28;20384;-56
2022/11/17 02:25:37;;;;;;;38.15;36.05;;;6.70;99.90;;;;;;5071557;28;20388;-57
2022/11/17 02:28:12;;;;;;;35.50;33.60;;;6.70;99.90;;;;;;5071229;28;20379;-57
2022/11/17 02:31:01;;;;;;;40.42;38.25;;;6.60;99.90;;;;;;5088419;28;20395;-57
2022/11/17 02:33:57;;;;;;;35.55;33.70;;;6.60;99.90;;;;;;5088391;28;20763;-56
2022/11/17 02:36:41;;;;;;;38.03;36.03;;;6.60;99.90;;;;;;5072665;28;20705;-57
2022/11/17 02:40:05;;;;;;;37.90;35.90;;;6.60;99.90;;;;;;5087678;28;20451;-58
2022/11/17 02:45:52;;;;;;;40.15;38.05;;;6.50;99.90;;;;;;5072311;28;20672;-58
2022/11/17 02:48:32;;;;;;;37.45;35.45;;;6.50;99.90;;;;;;5089023;28;20383;-58
2022/11/17 02:50:58;;;;;;;38.55;36.50;;;6.50;99.90;;;;;;5090795;28;20380;-57
2022/11/17 02:53:26;;;;;;;39.97;37.90;;;6.40;99.90;;;;;;5073514;28;20376;-57
2022/11/17 02:55:52;;;;;;;42.28;39.88;;;6.50;99.90;;;;;;5071494;28;20450;-53
2022/11/17 02:58:18;;;;;;;36.55;34.58;;;6.60;99.90;;;;;;5087838;28;20549;-57
2022/11/17 03:01:23;;;;;;;36.83;34.78;;;6.50;99.90;;;;;;5087176;28;20400;-53
2022/11/17 03:04:16;;;;;;;33.80;31.95;;;6.50;99.90;;;;;;5086684;28;20437;-57
2022/11/17 03:06:58;;;;;;;37.58;35.58;;;6.50;99.90;;;;;;5088648;28;20383;-56
2022/11/17 03:09:42;;;;;;;37.87;35.77;;;6.50;99.90;;;;;;5088627;28;20651;-56
2022/11/17 03:12:09;;;;;;;36.55;34.65;;;6.50;99.90;;;;;;5072285;28;20371;-56
2022/11/17 03:14:35;;;;;;;33.83;32.03;;;6.50;99.90;;;;;;5087991;28;20376;-58
2022/11/17 03:17:07;;;;;;;35.77;33.87;;;6.50;99.90;;;;;;5071067;28;20396;-58
2022/11/17 03:19:54;;;;;;;38.90;36.83;;;6.50;99.90;;;;;;5088348;28;20782;-58
2022/11/17 03:23:01;;;;;;;40.08;37.88;;;6.40;99.90;;;;;;5072954;28;20394;-58
2022/11/17 03:25:29;;;;;;;38.60;36.50;;;6.40;99.90;;;;;;5031962;28;20399;-55
2022/11/17 03:27:59;;;;;;;40.42;38.28;;;6.30;99.90;;;;;;5031620;28;20387;-55
2022/11/17 03:30:44;;;;;;;38.65;36.60;;;6.40;99.90;;;;;;5060654;28;20427;-57
2022/11/17 03:33:18;;;;;;;41.33;38.97;;;6.30;99.90;;;;;;5089543;28;20388;-56
2022/11/17 03:35:50;;;;;;;40.85;38.75;;;6.30;99.90;;;;;;5072432;28;20507;-58
2022/11/17 03:38:19;;;;;;;38.30;36.30;;;6.30;99.90;;;;;;5088425;28;20818;-52
2022/11/17 03:40:48;;;;;;;37.92;35.83;;;6.20;99.90;;;;;;5087590;28;20482;-58
2022/11/17 03:43:16;;;;;;;40.25;38.10;;;6.20;99.90;;;;;;5070449;28;20407;-56
2022/11/17 03:45:50;;;;;;;38.90;36.85;;;6.20;99.90;;;;;;5087215;28;20390;-57
2022/11/17 03:48:43;;;;;;;36.30;34.33;;;6.30;99.90;;;;;;5086582;28;20395;-55
2022/11/17 03:51:17;;;;;;;39.05;36.95;;;6.20;99.90;;;;;;5088805;28;20685;-57
2022/11/17 03:53:44;;;;;;;39.95;37.85;;;6.10;99.90;;;;;;5072246;28;20406;-57
2022/11/17 03:56:38;;;;;;;37.95;35.95;;;6.20;99.90;;;;;;5089715;28;20430;-57
2022/11/17 03:59:22;;;;;;;38.92;36.78;;;6.10;99.90;;;;;;5090271;28;20448;-58
2022/11/17 04:01:48;;;;;;;38.78;36.67;;;6.20;99.90;;;;;;5072726;28;20494;-56
2022/11/17 04:04:19;;;;;;;40.55;38.35;;;6.10;99.90;;;;;;5089600;28;20499;-56
2022/11/17 04:06:45;;;;;;;41.70;39.42;;;6.10;99.90;;;;;;5073669;28;20391;-57
2022/11/17 04:09:10;;;;;;;41.13;38.97;;;6.20;99.90;;;;;;5091183;28;20395;-58
2022/11/17 04:17:07;;;;;;;38.78;36.80;;;6.20;99.90;;;;;;5072741;28;20513;-56
2022/11/17 04:19:33;;;;;;;37.25;35.25;;;6.20;99.90;;;;;;5071931;28;20421;-57
2022/11/17 04:21:58;;;;;;;40.53;38.22;;;6.20;99.90;;;;;;5087005;28;20414;-56
2022/11/17 04:24:24;;;;;;;40.43;38.23;;;6.10;99.90;;;;;;5087625;28;20415;-58
2022/11/17 04:29:33;;;;;;;40.80;38.60;;;6.00;99.90;;;;;;5072731;28;20393;-57
2022/11/17 04:31:59;;;;;;;38.17;36.17;;;6.00;99.90;;;;;;5070834;28;20667;-53
2022/11/17 04:34:25;;;;;;;39.25;37.15;;;6.10;99.90;;;;;;5088000;28;20403;-53
2022/11/17 04:36:50;;;;;;;38.30;36.20;;;6.00;99.90;;;;;;5087250;28;20403;-55
2022/11/17 04:39:16;;;;;;;40.97;38.73;;;6.00;99.90;;;;;;5088864;28;20395;-58
2022/11/17 04:41:53;;;;;;;40.97;38.87;;;6.00;99.90;;;;;;5087955;28;20380;-56
2022/11/17 04:44:22;;;;;;;40.25;37.95;;;6.00;99.90;;;;;;5070586;28;20412;-58
2022/11/17 04:46:48;;;;;;;43.88;41.58;;;5.90;99.90;;;;;;5088455;28;20375;-55
2022/11/17 04:49:15;;;;;;;41.08;38.88;;;6.00;99.90;;;;;;5087962;28;20387;-57
2022/11/17 04:51:41;;;;;;;42.42;40.15;;;6.00;99.90;;;;;;5088174;28;20534;-55
2022/11/17 04:54:08;;;;;;;41.53;39.28;;;6.00;99.90;;;;;;5070620;28;20396;-57
2022/11/17 04:56:34;;;;;;;44.67;42.22;;;6.10;99.90;;;;;;5088012;28;20490;-58
2022/11/17 04:59:00;;;;;;;43.05;40.58;;;6.00;99.90;;;;;;5088006;28;20417;-57
2022/11/17 05:01:26;;;;;;;43.47;41.17;;;5.90;99.90;;;;;;5087720;28;20677;-56
2022/11/17 05:03:54;;;;;;;42.43;40.13;;;6.00;99.90;;;;;;5071214;28;20434;-58
2022/11/17 05:06:22;;;;;;;41.00;38.80;;;6.00;99.90;;;;;;5088107;28;20380;-56
2022/11/17 05:08:48;;;;;;;42.10;39.85;;;5.90;99.90;;;;;;5089073;28;20387;-57
2022/11/17 05:14:00;;;;;;;46.05;43.45;;;5.90;99.90;;;;;;5070537;28;20655;-56
2022/11/17 05:19:13;;;;;;;42.65;40.35;;;5.90;99.90;;;;;;5068472;28;20698;-56
2022/11/17 05:21:39;;;;;;;45.72;43.30;;;5.90;99.90;;;;;;5084774;28;20657;-55
2022/11/17 05:24:05;;;;;;;43.67;41.37;;;5.90;99.90;;;;;;5071658;28;20709;-56
2022/11/17 05:26:33;;;;;;;46.10;43.50;;;5.90;99.90;;;;;;5089895;28;20478;-56
2022/11/17 05:29:00;;;;;;;45.20;42.70;;;5.90;99.90;;;;;;5089535;28;20374;-51
2022/11/17 05:31:27;;;;;;;46.80;44.28;;;5.90;99.90;;;;;;5074190;28;20383;-53
2022/11/17 05:33:54;;;;;;;43.70;41.37;;;5.90;99.90;;;;;;5090537;28;20380;-56
2022/11/17 05:36:20;;;;;;;43.45;40.85;;;5.80;99.90;;;;;;5075096;28;20376;-57
2022/11/17 05:38:46;;;;;;;46.95;44.45;;;5.80;99.90;;;;;;5090970;28;20482;-56
2022/11/17 05:41:13;;;;;;;42.83;40.53;;;5.80;99.90;;;;;;5089462;28;20664;-58
2022/11/17 05:43:39;;;;;;;43.63;41.22;;;5.80;99.90;;;;;;5073937;28;20407;-56
2022/11/17 05:46:05;;;;;;;43.80;41.28;;;5.80;99.90;;;;;;5074429;28;20387;-55
2022/11/17 05:48:32;;;;;;;48.20;45.60;;;5.80;99.90;;;;;;5090876;28;20391;-58
2022/11/17 05:50:58;;;;;;;49.83;47.10;;;5.80;99.90;;;;;;5088460;28;20530;-58
2022/11/17 05:53:25;;;;;;;41.80;39.40;;;5.80;99.90;;;;;;5069460;28;20403;-58
2022/11/17 05:56:10;;;;;;;44.17;41.63;;;5.80;99.90;;;;;;5068817;28;20637;-58
2022/11/17 05:58:40;;;;;;;44.63;42.20;;;5.80;99.90;;;;;;5086679;28;20379;-57
2022/11/17 06:01:07;;;;;;;48.10;45.42;;;5.70;99.90;;;;;;5085089;28;20390;-58
2022/11/17 06:03:38;;;;;;;47.65;45.15;;;5.70;99.90;;;;;;5084024;28;20403;-56
2022/11/17 06:06:04;;;;;;;49.03;46.22;;;5.80;99.90;;;;;;5080862;28;20380;-57
2022/11/17 06:08:29;;;;;;;45.72;43.08;;;5.80;99.90;;;;;;5081350;28;20421;-58
2022/11/17 06:10:55;;;;;;;42.43;40.10;;;5.80;99.90;;;;;;5082151;28;20910;-58
2022/11/17 06:13:25;;;;;;;45.30;42.80;;;5.80;99.90;;;;;;5081113;28;20392;-55
2022/11/17 06:15:52;;;;;;;44.28;41.88;;;5.80;99.90;;;;;;5080741;28;20387;-55
2022/11/17 06:18:21;;;;;;;48.20;45.55;;;5.80;99.90;;;;;;5081630;28;20540;-54
2022/11/17 06:20:50;;;;;;;43.15;40.75;;;5.80;99.90;;;;;;5084299;28;20553;-56
2022/11/17 06:23:19;;;;;;;44.92;42.50;;;5.80;99.90;;;;;;5068839;28;20451;-55
2022/11/17 06:25:45;;;;;;;48.30;45.67;;;5.80;99.90;;;;;;5083039;28;20746;-58
2022/11/17 06:28:15;;;;;;;46.85;44.25;;;5.80;99.90;;;;;;5082953;28;20890;-58
2022/11/17 06:30:41;;;;;;;44.67;42.20;;;5.80;99.90;;;;;;5081815;28;20830;-56
2022/11/17 06:33:11;;;;;;;43.30;40.92;;;5.80;99.90;;;;;;5081801;28;20395;-54
2022/11/17 06:35:37;;;;;;;44.10;41.57;;;5.70;99.90;;;;;;5081040;28;20461;-56
2022/11/17 06:38:03;;;;;;;44.40;41.92;;;5.70;99.90;;;;;;5079600;28;20412;-57
2022/11/17 06:40:28;;;;;;;46.70;44.08;;;5.80;99.90;;;;;;5080276;28;20388;-56
2022/11/17 06:43:07;;;;;;;47.38;44.80;;;5.80;99.90;;;;;;5078415;28;20691;-58
2022/11/17 06:45:37;;;;;;;45.28;42.72;;;5.70;99.90;;;;;;5062570;28;20372;-56
2022/11/17 06:48:03;;;;;;;50.88;48.03;;;5.60;99.90;;;;;;5079443;28;20857;-56
2022/11/17 06:50:29;;;;;;;45.78;43.13;;;5.60;99.90;;;;;;5080167;28;20669;-58
2022/11/17 06:53:00;;;;;;;48.83;46.10;;;5.60;99.90;;;;;;5063031;28;20783;-58
2022/11/17 06:55:26;;;;;;;45.53;43.00;;;5.60;99.90;;;;;;5078121;28;20384;-58
2022/11/17 06:57:56;;;;;;;46.80;44.30;;;5.60;99.90;;;;;;5077976;28;20426;-57
2022/11/17 07:00:22;;;;;;;47.67;45.08;;;5.60;99.90;;;;;;5079052;28;20411;-57
2022/11/17 07:02:47;;;;;;;47.97;45.38;;;5.60;99.90;;;;;;5060891;28;20770;-57
2022/11/17 07:05:13;;;;;;;47.50;44.77;;;5.60;99.90;;;;;;5077410;28;20503;-56
2022/11/17 07:07:39;;;;;;;48.20;45.50;;;5.60;99.90;;;;;;5060456;28;20441;-58
2022/11/17 07:10:05;;;;;;;49.23;46.53;;;5.70;99.90;;;;;;5077895;28;20403;-57
2022/11/17 07:12:32;;;;;;;48.63;46.03;;;5.60;99.90;;;;;;5061515;28;20914;-55
2022/11/17 07:15:00;;;;;;;46.37;43.73;;;5.60;99.90;;;;;;5060666;28;20451;-56
2022/11/17 07:17:27;;;;;;;47.92;45.38;;;5.70;99.90;;;;;;5076536;28;20606;-58
2022/11/17 07:19:53;;;;;;;47.08;44.45;;;5.60;99.90;;;;;;5059809;28;20726;-53
2022/11/17 07:22:19;;;;;;;52.27;49.47;;;5.60;99.90;;;;;;5075899;28;20826;-58
2022/11/17 07:24:44;;;;;;;51.20;48.17;;;5.60;99.90;;;;;;5078951;28;20418;-55
2022/11/17 07:27:10;;;;;;;50.42;47.63;;;5.50;99.90;;;;;;5077690;28;20379;-57
2022/11/17 07:29:35;;;;;;;50.93;48.10;;;5.50;99.90;;;;;;5077312;28;20466;-57
2022/11/17 07:32:01;;;;;;;50.03;47.33;;;5.50;99.90;;;;;;5078330;28;20619;-56
2022/11/17 07:34:26;;;;;;;53.97;50.78;;;5.50;99.90;;;;;;5063540;28;20484;-56
2022/11/17 07:36:52;;;;;;;50.93;48.00;;;5.50;99.90;;;;;;5077879;28;20426;-55
2022/11/17 07:39:17;;;;;;;53.10;50.17;;;5.50;99.90;;;;;;5058487;28;20396;-55
2022/11/17 07:41:43;;;;;;;52.23;49.23;;;5.50;99.90;;;;;;5057788;28;20623;-58
2022/11/17 07:44:09;;;;;;;52.03;49.20;;;5.50;99.90;;;;;;5072131;28;20806;-56
2022/11/17 07:46:34;;;;;;;48.92;46.22;;;5.50;99.90;;;;;;5067525;28;20553;-56
2022/11/17 07:49:00;;;;;;;48.27;45.60;;;5.50;99.90;;;;;;5071127;28;20490;-58
2022/11/17 07:51:26;;;;;;;50.37;47.47;;;5.60;99.90;;;;;;5071072;28;20376;-58
2022/11/17 07:53:51;;;;;;;47.50;44.90;;;5.60;99.90;;;;;;5069951;28;20486;-57
2022/11/17 07:56:19;;;;;;;52.10;49.20;;;5.50;99.90;;;;;;5068386;28;20403;-58
2022/11/17 07:58:45;;;;;;;52.50;49.63;;;5.50;99.90;;;;;;5051424;28;20415;-58
2022/11/17 08:01:15;;;;;;;52.53;49.73;;;5.50;99.90;;;;;;5052670;28;20535;-56
2022/11/17 08:03:42;;;;;;;52.53;49.70;;;5.50;99.90;;;;;;5069879;28;20406;-58
2022/11/17 08:06:08;;;;;;;53.17;50.28;;;5.50;99.90;;;;;;5051208;28;20816;-58
2022/11/17 08:08:36;;;;;;;55.00;52.03;;;5.50;99.90;;;;;;5057680;28;20727;-57
2022/11/17 08:11:04;;;;;;;48.67;46.08;;;5.50;99.90;;;;;;5072740;28;20694;-55
2022/11/17 08:13:36;;;;;;;50.73;47.93;;;5.60;99.90;;;;;;5072209;28;20469;-57
2022/11/17 08:16:06;;;;;;;53.40;50.40;;;5.50;99.90;;;;;;5075106;28;20827;-57
2022/11/17 08:18:32;;;;;;;51.95;49.05;;;5.50;99.90;;;;;;5073827;28;20383;-58
2022/11/17 08:21:05;;;;;;;53.67;50.77;;;5.50;99.90;;;;;;5076248;28;20388;-57
2022/11/17 08:23:30;;;;;;;48.67;45.97;;;5.50;99.90;;;;;;5072927;28;20481;-57
2022/11/17 08:25:56;;;;;;;56.47;53.37;;;5.50;99.90;;;;;;5070860;28;20483;-56
2022/11/17 08:28:22;;;;;;;47.33;44.63;;;5.50;99.90;;;;;;5072676;28;20626;-57
2022/11/17 08:30:47;;;;;;;50.35;47.63;;;5.50;99.90;;;;;;5055557;28;20395;-58
2022/11/17 08:33:13;;;;;;;53.10;50.22;;;5.60;99.90;;;;;;5053307;28;20822;-57
2022/11/17 08:35:39;;;;;;;50.43;47.70;;;5.60;99.90;;;;;;5071585;28;20903;-58
2022/11/17 08:38:04;;;;;;;52.67;49.87;;;5.50;99.90;;;;;;5075677;28;20569;-58
2022/11/17 08:40:30;;;;;;;50.57;47.77;;;5.50;99.90;;;;;;5061108;28;20472;-58
2022/11/17 08:42:58;;;;;;;54.50;51.35;;;5.60;99.90;;;;;;5074691;28;20465;-57
2022/11/17 08:45:24;;;;;;;55.33;52.20;;;5.50;99.90;;;;;;5054812;28;20682;-57
2022/11/17 08:47:49;;;;;;;52.10;49.28;;;5.50;99.90;;;;;;5073493;28;20423;-58
2022/11/17 08:50:16;;;;;;;52.17;49.27;;;5.50;99.90;;;;;;5061301;28;20459;-58
2022/11/17 08:52:43;;;;;;;53.05;50.15;;;5.60;99.90;;;;;;5058396;28;20656;-55
2022/11/17 08:55:09;;;;;;;52.05;49.15;;;5.60;99.90;;;;;;5061014;28;20394;-54
2022/11/17 08:57:35;;;;;;;54.58;51.58;;;5.60;99.90;;;;;;5074566;28;20514;-57
2022/11/17 09:00:01;;;;;;;52.70;49.60;;;5.60;99.90;;;;;;5074393;28;20399;-58
2022/11/17 09:02:27;;;;;;;51.65;48.65;;;5.60;99.90;;;;;;5057764;28;20498;-56
2022/11/17 09:04:53;;;;;;;53.03;50.10;;;5.60;99.90;;;;;;5072161;28;20466;-56
2022/11/17 09:07:19;;;;;;;52.20;49.20;;;5.50;99.90;;;;;;5075097;28;20375;-56
2022/11/17 09:09:47;;;;;;;52.88;49.78;;;5.60;99.90;;;;;;5066583;28;20415;-54
2022/11/17 09:12:13;;;;;;;54.75;51.60;;;5.50;99.90;;;;;;5084799;28;20725;-57
2022/11/17 09:14:39;;;;;;;54.10;51.10;;;5.50;99.90;;;;;;5083540;28;20834;-59
2022/11/17 09:17:04;;;;;;;50.73;47.80;;;5.50;99.90;;;;;;5066503;28;20452;-57
2022/11/17 09:19:30;;;;;;;54.95;51.88;;;5.50;99.90;;;;;;5063837;28;20978;-57
2022/11/17 09:21:56;;;;;;;54.97;51.80;;;5.60;99.90;;;;;;5079658;28;20384;-57
2022/11/17 09:24:22;;;;;;;51.17;48.17;;;5.50;99.90;;;;;;5063676;28;20408;-58
2022/11/17 09:26:48;;;;;;;56.05;52.88;;;5.60;99.90;;;;;;5063402;28;20836;-57
2022/11/17 09:29:14;;;;;;;51.03;48.17;;;5.60;99.90;;;;;;5078225;28;20391;-59
2022/11/17 09:31:40;;;;;;;54.20;51.30;;;5.60;99.90;;;;;;5078534;28;20395;-57
2022/11/17 09:34:05;;;;;;;51.57;48.67;;;5.60;99.90;;;;;;5063014;28;20388;-58
2022/11/17 09:36:32;;;;;;;50.93;48.07;;;5.70;99.90;;;;;;5060600;28;20726;-58
2022/11/17 09:38:57;;;;;;;53.47;50.45;;;5.70;99.90;;;;;;5076114;28;20395;-57
2022/11/17 09:41:25;;;;;;;55.15;52.08;;;5.70;99.90;;;;;;5062016;28;20387;-56
2022/11/17 09:44:14;;;;;;;57.23;53.80;;;5.60;99.90;;;;;;5058355;28;20411;-58
2022/11/17 09:46:57;;;;;;;58.70;55.40;;;5.60;99.90;;;;;;5073862;28;20395;-56
2022/11/17 09:49:43;;;;;;;57.25;53.97;;;5.70;99.90;;;;;;5061007;28;20387;-56
2022/11/17 09:52:23;;;;;;;54.07;50.97;;;5.60;99.90;;;;;;5061197;28;20403;-57
2022/11/17 09:54:59;;;;;;;54.78;51.67;;;5.60;99.90;;;;;;5078498;28;20384;-58
2022/11/17 09:57:50;;;;;;;58.78;55.42;;;5.60;99.90;;;;;;5061478;28;20458;-57
2022/11/17 10:00:20;;;;;;;58.20;54.80;;;5.70;99.90;;;;;;5063461;28;20445;-57
2022/11/17 10:02:47;;;;;;;53.88;50.78;;;5.70;99.90;;;;;;5062280;28;20459;-55
2022/11/17 10:05:15;;;;;;;54.05;50.97;;;5.70;99.90;;;;;;5081071;28;20415;-57
2022/11/17 10:07:52;;;;;;;51.95;48.95;;;5.70;99.90;;;;;;5065207;28;21049;-56
2022/11/17 10:10:42;;;;;;;54.40;51.17;;;5.80;99.90;;;;;;5084824;28;20375;-57
2022/11/17 10:13:31;;;;;;;57.35;54.22;;;5.80;99.90;;;;;;5084209;28;20379;-57
2022/11/17 10:16:02;;;;;;;55.22;52.03;;;5.80;99.90;;;;;;5081810;28;21019;-58
2022/11/17 10:18:31;;;;;;;54.30;51.20;;;5.80;99.90;;;;;;5065162;28;20394;-59
2022/11/17 10:20:56;;;;;;;56.40;53.28;;;5.80;99.90;;;;;;5080742;28;20379;-57
2022/11/17 10:23:25;;;;;;;53.85;50.70;;;5.80;99.90;;;;;;5079532;28;20411;-58
2022/11/17 10:25:57;;;;;;;53.17;50.20;;;5.80;99.90;;;;;;5081921;28;20519;-58
2022/11/17 10:28:25;;;;;;;53.85;50.75;;;5.80;99.90;;;;;;5080231;28;20898;-58
2022/11/17 10:31:24;;;;;;;53.08;49.97;;;5.80;99.90;;;;;;5082485;28;20384;-59
2022/11/17 10:33:50;;;;;;;62.50;58.90;;;5.80;99.90;;;;;;5071365;28;21001;-51
2022/11/17 10:36:27;;;;;;;62.47;59.03;;;6.10;99.90;;;;;;5072480;28;20387;-54
2022/11/17 10:38:55;;;;;;;61.03;57.63;;;6.30;99.90;;;;;;5071657;28;20395;-59
2022/11/17 10:41:26;;;;;;;56.95;53.55;;;6.40;99.90;;;;;;5081142;28;20771;-59
2022/11/17 10:44:04;;;;;;;56.22;52.92;;;6.20;99.90;;;;;;5081052;28;20559;-57
2022/11/17 10:46:30;;;;;;;53.17;50.17;;;6.10;99.90;;;;;;5045987;28;21191;-59
2022/11/17 10:49:03;;;;;;;53.88;50.78;;;6.00;99.90;;;;;;5063647;28;20387;-60
2022/11/17 10:51:31;;;;;;;58.67;55.27;;;5.90;99.90;;;;;;5061679;28;20632;-55
2022/11/17 10:54:02;;;;;;;60.75;57.30;;;6.00;99.90;;;;;;5063400;28;20376;-58
2022/11/17 10:56:29;;;;;;;57.00;53.75;;;5.90;99.90;;;;;;5061302;28;20418;-57
2022/11/17 10:59:24;;;;;;;60.08;56.58;;;5.90;99.90;;;;;;5080176;28;20399;-57
2022/11/17 11:01:50;;;;;;;58.10;54.60;;;5.90;99.90;;;;;;5065254;28;20647;-55
2022/11/17 11:04:34;;;;;;;56.60;53.30;;;5.90;99.90;;;;;;5082158;28;20411;-59
2022/11/17 11:07:25;;;;;;;57.70;54.35;;;5.80;99.90;;;;;;5080577;28;20811;-56
2022/11/17 11:10:13;;;;;;;59.53;55.92;;;5.80;99.90;;;;;;5067919;28;20412;-56
2022/11/17 11:12:48;;;;;;;58.50;55.10;;;5.80;99.90;;;;;;5082051;28;20394;-58
2022/11/17 11:15:21;;;;;;;61.83;58.33;;;5.80;99.90;;;;;;5081941;28;20501;-58
2022/11/17 11:17:47;;;;;;;61.50;58.00;;;5.80;99.90;;;;;;5082384;28;20933;-59
2022/11/17 11:20:18;;;;;;;61.17;57.58;;;5.80;99.90;;;;;;5067761;28;20376;-58
2022/11/17 11:23:03;;;;;;;59.58;56.08;;;5.70;99.90;;;;;;5067437;28;20845;-57
2022/11/17 11:25:35;;;;;;;62.72;59.03;;;5.80;99.90;;;;;;5067734;28;20858;-59
2022/11/17 11:28:39;;;;;;;60.92;57.33;;;5.80;99.90;;;;;;5085418;28;20375;-58
2022/11/17 11:31:38;;;;;;;60.05;56.55;;;5.80;99.90;;;;;;5083072;28;20387;-59
2022/11/17 11:34:10;;;;;;;59.10;55.70;;;5.80;99.90;;;;;;5054598;28;20382;-58
2022/11/17 11:36:49;;;;;;;60.13;56.70;;;5.80;99.90;;;;;;5064203;28;20392;-58
2022/11/17 11:39:46;;;;;;;52.13;49.13;;;5.70;99.90;;;;;;5063886;28;20363;-58
2022/11/17 11:42:34;;;;;;;55.70;52.30;;;5.70;99.90;;;;;;5080443;28;20407;-58
2022/11/17 11:45:31;;;;;;;59.00;55.70;;;5.80;99.90;;;;;;5079454;28;20954;-56
2022/11/17 11:48:20;;;;;;;54.17;51.08;;;5.80;99.90;;;;;;5080385;28;20946;-57
2022/11/17 11:50:59;;;;;;;54.00;50.88;;;5.80;99.90;;;;;;5079771;28;20704;-55
2022/11/17 11:53:52;;;;;;;50.95;48.13;;;5.70;99.90;;;;;;5060970;28;20502;-57
2022/11/17 11:56:35;;;;;;;51.83;48.87;;;5.70;99.90;;;;;;5061501;28;20415;-56
2022/11/17 11:59:27;;;;;;;51.08;48.22;;;5.80;99.90;;;;;;5079832;28;20686;-58
2022/11/17 12:02:13;;;;;;;51.15;47.97;;;5.80;99.90;;;;;;5062387;28;20386;-57
2022/11/17 12:05:10;;;;;;;52.72;49.78;;;5.70;99.90;;;;;;5059873;28;20400;-56
2022/11/17 12:07:40;;;;;;;53.27;50.17;;;5.70;99.90;;;;;;5057306;28;20387;-55
2022/11/17 12:10:34;;;;;;;53.42;50.33;;;5.60;99.90;;;;;;5062153;28;20377;-56
2022/11/17 12:13:04;;;;;;;55.45;52.28;;;5.60;99.90;;;;;;5047272;28;20481;-55
2022/11/17 12:15:35;;;;;;;50.57;47.63;;;5.60;99.90;;;;;;5079727;28;20422;-55
2022/11/17 12:18:12;;;;;;;52.17;49.28;;;5.60;99.90;;;;;;5076720;28;20391;-57
2022/11/17 12:20:43;;;;;;;52.60;49.58;;;5.60;99.90;;;;;;5076494;28;20856;-58
2022/11/17 12:23:37;;;;;;;51.05;48.15;;;5.70;99.90;;;;;;5061227;28;20391;-57
2022/11/17 12:26:04;;;;;;;51.70;48.60;;;5.70;99.90;;;;;;5071290;28;20380;-57
2022/11/17 12:28:40;;;;;;;53.10;49.90;;;5.70;99.90;;;;;;5056097;28;20662;-58
2022/11/17 12:31:11;;;;;;;65.28;61.42;;;5.70;99.90;;;;;;5059894;28;20391;-57
2022/11/17 12:33:51;;;;;;;62.55;58.75;;;6.10;99.90;;;;;;5057632;28;20806;-58
2022/11/17 12:36:23;;;;;;;67.28;63.38;;;6.20;99.90;;;;;;5058050;28;20398;-58
2022/11/17 12:38:53;;;;;;;67.13;63.22;;;6.30;99.90;;;;;;5059513;28;20395;-58
2022/11/17 12:41:47;;;;;;;69.05;65.05;;;6.30;99.90;;;;;;5062158;28;20380;-58
2022/11/17 12:44:31;;;;;;;68.72;64.88;;;6.30;99.90;;;;;;5061897;28;20421;-59
2022/11/17 12:47:25;;;;;;;65.40;61.60;;;6.30;99.90;;;;;;5063778;28;21005;-56
2022/11/17 12:50:18;;;;;;;56.70;53.30;;;6.20;99.90;;;;;;5081171;28;20383;-55
2022/11/17 12:53:10;;;;;;;58.95;55.42;;;6.00;99.90;;;;;;5062039;28;20368;-57
2022/11/17 12:55:47;;;;;;;59.28;55.67;;;6.00;99.90;;;;;;5062206;28;20382;-58
2022/11/17 12:58:52;;;;;;;57.90;54.60;;;6.00;99.90;;;;;;5060901;28;20537;-56
2022/11/17 13:01:40;;;;;;;55.95;52.63;;;5.90;99.90;;;;;;5062348;28;20383;-58
2022/11/17 13:04:14;;;;;;;58.05;54.55;;;5.90;99.90;;;;;;5059910;28;20403;-56
2022/11/17 13:07:02;;;;;;;56.42;53.25;;;5.90;99.90;;;;;;5077560;28;20380;-57
2022/11/17 13:09:35;;;;;;;57.47;54.30;;;5.90;99.90;;;;;;5060551;28;20458;-57
2022/11/17 13:12:10;;;;;;;56.45;53.05;;;5.80;99.90;;;;;;5062224;28;20380;-56
2022/11/17 13:14:54;;;;;;;57.72;54.33;;;5.80;99.90;;;;;;5078600;28;20439;-58
2022/11/17 13:17:38;;;;;;;58.87;55.50;;;5.90;99.90;;;;;;5064808;28;20956;-58
2022/11/17 13:20:28;;;;;;;58.10;54.67;;;5.90;99.90;;;;;;5081750;28;20384;-57
2022/11/17 13:23:03;;;;;;;56.55;53.15;;;5.80;99.90;;;;;;5064900;28;20402;-58
2022/11/17 13:25:34;;;;;;;62.05;58.55;;;5.80;99.90;;;;;;5080624;28;20857;-56
2022/11/17 13:28:03;;;;;;;61.30;57.60;;;5.80;99.90;;;;;;5076091;28;20394;-57